Time,TemperatureF,DewpointF,PressureIn,WindDirection,WindDirectionDegrees,WindSpeedMPH,WindSpeedGustMPH,Humidity,HourlyPrecipIn,Conditions,Clouds,dailyrainin,SoftwareType,DateUTC
2013-05-25 00:00:00,57.4,52.6,29.88,SW,225,4.9,4.9,84,0.00,,---,0.00,VWS V14.01,2013-05-24 14:00:00,
2013-05-25 00:05:00,57.4,52.6,29.88,South,180,7.2,7.2,84,0.00,,---,0.00,VWS V14.01,2013-05-24 14:05:00,
2013-05-25 00:10:00,57.4,52.6,29.88,South,180,4.9,4.9,84,0.00,,---,0.00,VWS V14.01,2013-05-24 14:10:00,
2013-05-25 00:15:00,57.4,52.6,29.88,WSW,248,2.9,2.9,84,0.00,,---,0.00,VWS V14.01,2013-05-24 14:15:00,
2013-05-25 00:20:00,57.4,52.6,29.88,SW,225,2.0,2.2,84,0.00,,---,0.00,VWS V14.01,2013-05-24 14:20:00,
2013-05-25 00:25:00,57.2,52.7,29.88,South,180,2.5,2.5,85,0.00,,---,0.00,VWS V14.01,2013-05-24 14:25:00,
2013-05-25 00:30:00,57.2,52.7,29.88,SSE,158,4.3,4.3,85,0.00,,---,0.00,VWS V14.01,2013-05-24 14:30:00,
2013-05-25 00:35:00,57.2,52.7,29.88,SSE,158,2.2,2.2,85,0.00,,---,0.00,VWS V14.01,2013-05-24 14:35:00,
2013-05-25 00:40:00,57.0,52.9,29.88,South,180,3.1,3.1,86,0.00,,---,0.00,VWS V14.01,2013-05-24 14:40:00,
2013-05-25 00:45:00,57.0,52.9,29.88,ESE,112,3.1,3.4,86,0.00,,---,0.00,VWS V14.01,2013-05-24 14:45:00,
2013-05-25 00:50:00,57.0,52.9,29.88,SSW,202,3.8,3.8,86,0.00,,---,0.00,VWS V14.01,2013-05-24 14:50:00,
2013-05-25 00:55:00,56.8,52.7,29.88,SE,135,4.3,4.3,86,0.00,,---,0.00,VWS V14.01,2013-05-24 14:55:00,
2013-05-25 01:00:00,56.8,52.7,29.88,South,180,4.3,4.3,86,0.00,,---,0.00,VWS V14.01,2013-05-24 15:00:00,
2013-05-25 01:05:00,56.8,52.7,29.88,South,180,1.6,1.6,86,0.00,,---,0.00,VWS V14.01,2013-05-24 15:05:00,
2013-05-25 01:10:00,56.8,52.7,29.88,South,180,4.3,4.3,86,0.00,,---,0.00,VWS V14.01,2013-05-24 15:10:00,
2013-05-25 01:15:00,56.7,52.8,29.88,South,180,3.1,5.8,87,0.00,,---,0.00,VWS V14.01,2013-05-24 15:15:00,
2013-05-25 01:20:00,56.7,52.8,29.88,SE,135,2.7,3.1,87,0.00,,---,0.00,VWS V14.01,2013-05-24 15:20:00,
2013-05-25 01:25:00,56.7,52.8,29.88,South,180,0.9,0.9,87,0.00,,---,0.00,VWS V14.01,2013-05-24 15:25:00,
2013-05-25 01:30:00,56.7,52.8,29.88,SSW,202,3.6,4.3,87,0.00,,---,0.00,VWS V14.01,2013-05-24 15:30:00,
2013-05-25 01:35:00,56.7,52.8,29.88,West,270,5.4,5.4,87,0.00,,---,0.00,VWS V14.01,2013-05-24 15:35:00,
2013-05-25 01:40:00,56.7,52.8,29.88,SSE,158,1.3,1.3,87,0.00,,---,0.00,VWS V14.01,2013-05-24 15:40:00,
2013-05-25 01:45:00,56.7,52.8,29.88,South,180,2.0,2.0,87,0.00,,---,0.00,VWS V14.01,2013-05-24 15:45:00,
2013-05-25 01:50:00,56.7,52.8,29.85,WSW,248,1.6,1.6,87,0.00,,---,0.00,VWS V14.01,2013-05-24 15:50:00,
2013-05-25 01:55:00,56.7,53.2,29.85,South,180,2.2,3.1,88,0.00,,---,0.00,VWS V14.01,2013-05-24 15:55:00,
2013-05-25 02:00:00,56.7,52.8,29.85,SW,225,7.6,7.6,87,0.00,,---,0.00,VWS V14.01,2013-05-24 16:00:00,
2013-05-25 02:05:00,56.7,52.8,29.88,SSE,158,6.3,6.3,87,0.00,,---,0.00,VWS V14.01,2013-05-24 16:05:00,
2013-05-25 02:10:00,56.7,53.2,29.88,South,180,2.0,3.4,88,0.00,,---,0.00,VWS V14.01,2013-05-24 16:10:00,
2013-05-25 02:15:00,56.7,53.2,29.88,SSE,158,4.3,4.3,88,0.00,,---,0.00,VWS V14.01,2013-05-24 16:15:00,
2013-05-25 02:20:00,56.7,53.2,29.88,SW,225,4.9,4.9,88,0.00,,---,0.00,VWS V14.01,2013-05-24 16:20:00,
2013-05-25 02:25:00,56.7,52.8,29.88,South,180,4.3,4.3,87,0.00,,---,0.00,VWS V14.01,2013-05-24 16:25:00,
2013-05-25 02:30:00,56.7,52.8,29.88,NNW,338,5.8,5.8,87,0.00,,---,0.00,VWS V14.01,2013-05-24 16:30:00,
2013-05-25 02:35:00,56.5,53.0,29.88,SSW,202,1.3,2.9,88,0.00,,---,0.00,VWS V14.01,2013-05-24 16:35:00,
2013-05-25 02:40:00,56.5,52.7,29.88,SW,225,2.7,4.0,87,0.00,,---,0.00,VWS V14.01,2013-05-24 16:40:00,
2013-05-25 02:45:00,56.5,52.7,29.88,SSE,158,7.8,7.8,87,0.00,,---,0.00,VWS V14.01,2013-05-24 16:45:00,
2013-05-25 02:50:00,56.5,53.0,29.88,SE,135,4.0,4.0,88,0.00,,---,0.00,VWS V14.01,2013-05-24 16:50:00,
2013-05-25 02:55:00,56.5,53.0,29.88,SE,135,3.1,3.6,88,0.00,,---,0.00,VWS V14.01,2013-05-24 16:55:00,
2013-05-25 03:00:00,56.5,52.7,29.88,SSW,202,6.9,6.9,87,0.00,,---,0.00,VWS V14.01,2013-05-24 17:00:00,
2013-05-25 03:05:00,56.5,52.7,29.88,SE,135,6.3,6.3,87,0.00,,---,0.00,VWS V14.01,2013-05-24 17:05:00,
2013-05-25 03:10:00,56.5,52.7,29.88,SW,225,3.1,3.1,87,0.00,,---,0.00,VWS V14.01,2013-05-24 17:10:00,
2013-05-25 03:15:00,56.5,53.0,29.88,South,180,2.2,4.3,88,0.00,,---,0.00,VWS V14.01,2013-05-24 17:15:00,
2013-05-25 03:20:00,56.5,53.0,29.88,South,180,3.1,3.1,88,0.04,,---,0.04,VWS V14.01,2013-05-24 17:20:00,
2013-05-25 03:25:00,56.3,53.1,29.88,WSW,248,5.8,5.8,89,0.04,,---,0.04,VWS V14.01,2013-05-24 17:25:00,
2013-05-25 03:30:00,56.3,53.1,29.88,SW,225,2.7,4.0,89,0.04,,---,0.04,VWS V14.01,2013-05-24 17:30:00,
2013-05-25 03:35:00,56.3,53.1,29.88,SSE,158,5.6,5.6,89,0.04,,---,0.04,VWS V14.01,2013-05-24 17:35:00,
2013-05-25 03:40:00,56.3,53.1,29.88,SSE,158,2.9,2.9,89,0.04,,---,0.04,VWS V14.01,2013-05-24 17:40:00,
2013-05-25 03:45:00,56.1,52.9,29.88,SW,225,3.6,3.6,89,0.04,,---,0.04,VWS V14.01,2013-05-24 17:45:00,
2013-05-25 03:50:00,56.1,52.9,29.88,WSW,248,3.4,3.4,89,0.04,,---,0.04,VWS V14.01,2013-05-24 17:50:00,
2013-05-25 03:55:00,55.9,52.8,29.88,SSE,158,2.0,4.7,89,0.04,,---,0.04,VWS V14.01,2013-05-24 17:55:00,
2013-05-25 04:00:00,55.9,52.8,29.88,SSW,202,2.2,2.2,89,0.04,,---,0.04,VWS V14.01,2013-05-24 18:00:00,
2013-05-25 04:05:00,55.9,52.8,29.88,SSE,158,4.3,4.3,89,0.04,,---,0.04,VWS V14.01,2013-05-24 18:05:00,
2013-05-25 04:10:00,55.8,52.6,29.88,SSW,202,3.8,3.8,89,0.04,,---,0.04,VWS V14.01,2013-05-24 18:10:00,
2013-05-25 04:15:00,55.8,52.6,29.88,SSE,158,3.4,5.4,89,0.04,,---,0.04,VWS V14.01,2013-05-24 18:15:00,
2013-05-25 04:20:00,55.8,52.6,29.88,SW,225,2.2,3.4,89,0.00,,---,0.04,VWS V14.01,2013-05-24 18:20:00,
2013-05-25 04:25:00,55.6,52.4,29.88,South,180,5.8,5.8,89,0.00,,---,0.04,VWS V14.01,2013-05-24 18:25:00,
2013-05-25 04:30:00,55.6,52.7,29.88,SSW,202,5.8,5.8,90,0.00,,---,0.04,VWS V14.01,2013-05-24 18:30:00,
2013-05-25 04:35:00,55.4,52.5,29.88,SSE,158,6.3,6.3,90,0.00,,---,0.04,VWS V14.01,2013-05-24 18:35:00,
2013-05-25 04:40:00,55.4,52.2,29.88,South,180,1.6,1.6,89,0.00,,---,0.04,VWS V14.01,2013-05-24 18:40:00,
2013-05-25 04:45:00,55.4,52.2,29.88,SSW,202,3.4,3.4,89,0.00,,---,0.04,VWS V14.01,2013-05-24 18:45:00,
2013-05-25 04:50:00,55.2,52.3,29.88,South,180,5.6,5.6,90,0.00,,---,0.04,VWS V14.01,2013-05-24 18:50:00,
2013-05-25 04:55:00,55.2,52.3,29.88,SE,135,2.7,2.7,90,0.00,,---,0.04,VWS V14.01,2013-05-24 18:55:00,
2013-05-25 05:00:00,55.2,52.3,29.88,SSW,202,5.4,5.4,90,0.00,,---,0.04,VWS V14.01,2013-05-24 19:00:00,
2013-05-25 05:05:00,55.2,52.3,29.88,SSW,202,3.1,3.1,90,0.00,,---,0.04,VWS V14.01,2013-05-24 19:05:00,
2013-05-25 05:10:00,55.2,52.3,29.88,SSE,158,1.3,2.9,90,0.00,,---,0.04,VWS V14.01,2013-05-24 19:10:00,
2013-05-25 05:15:00,55.2,52.3,29.88,SSW,202,4.5,4.5,90,0.00,,---,0.04,VWS V14.01,2013-05-24 19:15:00,
2013-05-25 05:20:00,55.2,52.3,29.91,South,180,3.1,3.1,90,0.00,,---,0.04,VWS V14.01,2013-05-24 19:20:00,
2013-05-25 05:25:00,55.2,52.3,29.91,SE,135,2.0,2.0,90,0.00,,---,0.04,VWS V14.01,2013-05-24 19:25:00,
2013-05-25 05:30:00,55.2,52.3,29.91,South,180,2.9,2.9,90,0.00,,---,0.04,VWS V14.01,2013-05-24 19:30:00,
2013-05-25 05:35:00,55.4,52.5,29.88,SSW,202,1.3,1.3,90,0.00,,---,0.04,VWS V14.01,2013-05-24 19:35:00,
2013-05-25 05:40:00,55.4,52.2,29.88,SW,225,2.7,3.8,89,0.00,,---,0.04,VWS V14.01,2013-05-24 19:40:00,
2013-05-25 05:45:00,55.2,52.3,29.88,East,90,1.6,1.6,90,0.00,,---,0.04,VWS V14.01,2013-05-24 19:45:00,
2013-05-25 05:50:00,55.2,52.3,29.91,WSW,248,2.2,2.2,90,0.00,,---,0.04,VWS V14.01,2013-05-24 19:50:00,
2013-05-25 05:55:00,55.4,52.2,29.91,SW,225,2.2,2.2,89,0.00,,---,0.04,VWS V14.01,2013-05-24 19:55:00,
2013-05-25 06:00:00,55.2,52.3,29.91,South,180,2.2,2.2,90,0.00,,---,0.04,VWS V14.01,2013-05-24 20:00:00,
2013-05-25 06:05:00,55.4,52.2,29.91,South,180,2.9,2.9,89,0.00,,---,0.04,VWS V14.01,2013-05-24 20:05:00,
2013-05-25 06:10:00,55.4,52.2,29.91,SW,225,1.6,1.6,89,0.00,,---,0.04,VWS V14.01,2013-05-24 20:10:00,
2013-05-25 06:15:00,55.4,52.2,29.91,SE,135,0.0,2.2,89,0.00,,---,0.04,VWS V14.01,2013-05-24 20:15:00,
2013-05-25 06:20:00,55.4,52.2,29.91,SW,225,2.9,2.9,89,0.00,,---,0.04,VWS V14.01,2013-05-24 20:20:00,
2013-05-25 06:25:00,55.2,52.3,29.91,South,180,1.6,1.6,90,0.00,,---,0.04,VWS V14.01,2013-05-24 20:25:00,
2013-05-25 06:30:00,55.0,52.2,29.91,SW,225,2.9,2.9,90,0.00,,---,0.04,VWS V14.01,2013-05-24 20:30:00,
2013-05-25 06:35:00,55.0,52.2,29.91,SSW,202,1.6,1.6,90,0.00,,---,0.04,VWS V14.01,2013-05-24 20:35:00,
2013-05-25 06:40:00,54.9,51.7,29.91,SSE,158,1.6,1.6,89,0.00,,---,0.04,VWS V14.01,2013-05-24 20:40:00,
2013-05-25 06:45:00,54.9,51.7,29.91,SW,225,1.1,3.4,89,0.00,,---,0.04,VWS V14.01,2013-05-24 20:45:00,
2013-05-25 06:50:00,54.9,51.7,29.91,WSW,248,1.3,2.9,89,0.00,,---,0.04,VWS V14.01,2013-05-24 20:50:00,
2013-05-25 06:55:00,54.7,51.5,29.91,SW,225,2.9,2.9,89,0.00,,---,0.04,VWS V14.01,2013-05-24 20:55:00,
2013-05-25 07:00:00,54.7,51.5,29.91,West,270,3.6,3.6,89,0.00,,---,0.04,VWS V14.01,2013-05-24 21:00:00,
2013-05-25 07:05:00,54.7,51.5,29.91,SSW,202,2.0,2.0,89,0.00,,---,0.04,VWS V14.01,2013-05-24 21:05:00,
2013-05-25 07:10:00,54.5,51.3,29.91,SW,225,1.3,1.6,89,0.00,,---,0.04,VWS V14.01,2013-05-24 21:10:00,
2013-05-25 07:15:00,54.5,51.3,29.91,SSW,202,0.9,2.7,89,0.00,,---,0.04,VWS V14.01,2013-05-24 21:15:00,
2013-05-25 07:20:00,54.5,51.3,29.91,SSE,158,1.6,2.7,89,0.00,,---,0.04,VWS V14.01,2013-05-24 21:20:00,
2013-05-25 07:25:00,54.5,51.3,29.91,West,270,2.5,2.5,89,0.00,,---,0.04,VWS V14.01,2013-05-24 21:25:00,
2013-05-25 07:30:00,54.5,51.3,29.91,ESE,112,2.2,2.2,89,0.00,,---,0.04,VWS V14.01,2013-05-24 21:30:00,
2013-05-25 07:35:00,54.5,51.3,29.91,South,180,2.5,2.5,89,0.00,,---,0.04,VWS V14.01,2013-05-24 21:35:00,
2013-05-25 07:40:00,54.5,51.3,29.91,WNW,292,3.1,3.1,89,0.00,,---,0.04,VWS V14.01,2013-05-24 21:40:00,
2013-05-25 07:45:00,54.5,51.3,29.91,SSE,158,4.7,4.7,89,0.00,,---,0.04,VWS V14.01,2013-05-24 21:45:00,
2013-05-25 07:50:00,54.5,51.0,29.94,South,180,4.7,4.7,88,0.00,,---,0.04,VWS V14.01,2013-05-24 21:50:00,
2013-05-25 07:55:00,54.7,51.2,29.94,SSW,202,2.5,2.5,88,0.00,,---,0.04,VWS V14.01,2013-05-24 21:55:00,
2013-05-25 08:00:00,54.7,51.2,29.94,South,180,4.0,4.0,88,0.00,,---,0.04,VWS V14.01,2013-05-24 22:00:00,
2013-05-25 08:05:00,54.7,51.2,29.94,SSE,158,2.9,6.3,88,0.00,,---,0.04,VWS V14.01,2013-05-24 22:05:00,
2013-05-25 08:10:00,54.9,51.4,29.94,South,180,3.6,3.6,88,0.00,,---,0.04,VWS V14.01,2013-05-24 22:10:00,
2013-05-25 08:15:00,55.0,51.2,29.94,South,180,4.9,4.9,87,0.00,,---,0.04,VWS V14.01,2013-05-24 22:15:00,
2013-05-25 08:20:00,55.2,51.4,29.94,SSE,158,2.9,6.5,87,0.00,,---,0.04,VWS V14.01,2013-05-24 22:20:00,
2013-05-25 08:25:00,55.4,51.6,29.94,SSW,202,2.9,6.5,87,0.00,,---,0.04,VWS V14.01,2013-05-24 22:25:00,
2013-05-25 08:30:00,55.8,51.6,29.94,SW,225,3.8,3.8,86,0.00,,---,0.04,VWS V14.01,2013-05-24 22:30:00,
2013-05-25 08:35:00,55.9,51.8,29.94,ESE,112,2.5,6.5,86,0.00,,---,0.04,VWS V14.01,2013-05-24 22:35:00,
2013-05-25 08:40:00,56.1,52.0,29.94,SW,225,4.0,6.3,86,0.00,,---,0.04,VWS V14.01,2013-05-24 22:40:00,
2013-05-25 08:45:00,56.5,52.3,29.94,South,180,8.5,8.5,86,0.00,,---,0.04,VWS V14.01,2013-05-24 22:45:00,
2013-05-25 08:50:00,56.7,52.2,29.94,West,270,7.4,7.4,85,0.00,,---,0.04,VWS V14.01,2013-05-24 22:50:00,
2013-05-25 08:55:00,56.8,52.4,29.94,SSE,158,3.1,3.6,85,0.00,,---,0.04,VWS V14.01,2013-05-24 22:55:00,
2013-05-25 09:00:00,57.0,52.6,29.94,SSW,202,1.6,2.9,85,0.00,,---,0.04,VWS V14.01,2013-05-24 23:00:00,
2013-05-25 09:05:00,57.2,52.7,29.97,SE,135,3.1,3.1,85,0.00,,---,0.04,VWS V14.01,2013-05-24 23:05:00,
2013-05-25 09:10:00,57.4,52.6,29.97,ESE,112,2.5,5.8,84,0.00,,---,0.04,VWS V14.01,2013-05-24 23:10:00,
2013-05-25 09:15:00,57.6,52.8,29.97,SSW,202,2.9,4.0,84,0.00,,---,0.04,VWS V14.01,2013-05-24 23:15:00,
2013-05-25 09:20:00,57.7,52.6,29.94,SSW,202,2.0,2.0,83,0.00,,---,0.04,VWS V14.01,2013-05-24 23:20:00,
2013-05-25 09:25:00,57.9,53.1,29.94,South,180,1.6,1.6,84,0.00,,---,0.04,VWS V14.01,2013-05-24 23:25:00,
2013-05-25 09:30:00,57.9,52.8,29.94,South,180,2.9,4.0,83,0.00,,---,0.04,VWS V14.01,2013-05-24 23:30:00,
2013-05-25 09:35:00,58.1,53.0,29.97,SSE,158,0.9,1.6,83,0.00,,---,0.04,VWS V14.01,2013-05-24 23:35:00,
2013-05-25 09:40:00,58.3,53.2,29.97,SE,135,1.6,2.7,83,0.00,,---,0.04,VWS V14.01,2013-05-24 23:40:00,
2013-05-25 09:45:00,58.3,52.8,29.97,South,180,1.1,2.5,82,0.00,,---,0.04,VWS V14.01,2013-05-24 23:45:00,
2013-05-25 09:50:00,58.5,53.0,29.97,SW,225,4.7,4.7,82,0.00,,---,0.04,VWS V14.01,2013-05-24 23:50:00,
2013-05-25 09:55:00,58.6,53.2,29.97,SW,225,3.4,3.4,82,0.00,,---,0.04,VWS V14.01,2013-05-24 23:55:00,
2013-05-25 10:00:00,58.8,53.3,29.97,SSE,158,2.5,2.5,82,0.00,,---,0.04,VWS V14.01,2013-05-25 00:00:00,
2013-05-25 10:05:00,59.4,53.5,29.97,SSE,158,1.3,2.0,81,0.00,,---,0.04,VWS V14.01,2013-05-25 00:05:00,
2013-05-25 10:10:00,59.5,53.7,29.97,SSE,158,2.7,2.7,81,0.00,,---,0.04,VWS V14.01,2013-05-25 00:10:00,
2013-05-25 10:15:00,60.1,53.9,29.97,SE,135,6.0,6.0,80,0.00,,---,0.04,VWS V14.01,2013-05-25 00:15:00,
2013-05-25 10:20:00,60.4,53.9,29.97,SSE,158,0.9,2.0,79,0.00,,---,0.04,VWS V14.01,2013-05-25 00:20:00,
2013-05-25 10:25:00,60.6,53.7,29.97,SSW,202,1.6,1.6,78,0.00,,---,0.04,VWS V14.01,2013-05-25 00:25:00,
2013-05-25 10:30:00,61.0,54.1,29.97,SW,225,3.4,3.4,78,0.00,,---,0.04,VWS V14.01,2013-05-25 00:30:00,
2013-05-25 10:35:00,61.2,54.3,29.94,SSE,158,4.3,4.3,78,0.00,,---,0.04,VWS V14.01,2013-05-25 00:35:00,
2013-05-25 10:40:00,61.5,53.9,29.94,South,180,7.4,7.4,76,0.00,,---,0.04,VWS V14.01,2013-05-25 00:40:00,
2013-05-25 10:45:00,61.7,54.1,29.94,SSW,202,3.6,3.6,76,0.00,,---,0.04,VWS V14.01,2013-05-25 00:45:00,
2013-05-25 10:50:00,62.2,54.6,29.94,SW,225,2.5,5.8,76,0.00,,---,0.04,VWS V14.01,2013-05-25 00:50:00,
2013-05-25 10:55:00,62.4,55.1,29.94,SW,225,3.8,3.8,77,0.00,,---,0.04,VWS V14.01,2013-05-25 00:55:00,
2013-05-25 11:00:00,62.6,54.6,29.94,WNW,292,1.6,2.5,75,0.00,,---,0.04,VWS V14.01,2013-05-25 01:00:00,
2013-05-25 11:05:00,62.6,54.2,29.94,SSW,202,3.4,5.4,74,0.00,,---,0.04,VWS V14.01,2013-05-25 01:05:00,
2013-05-25 11:10:00,63.0,54.2,29.94,SSW,202,4.3,4.7,73,0.00,,---,0.04,VWS V14.01,2013-05-25 01:10:00,
2013-05-25 11:15:00,63.1,54.3,29.94,SSE,158,7.2,7.2,73,0.00,,---,0.04,VWS V14.01,2013-05-25 01:15:00,
2013-05-25 11:20:00,63.3,54.5,29.94,SSE,158,3.6,3.6,73,0.00,,---,0.04,VWS V14.01,2013-05-25 01:20:00,
2013-05-25 11:25:00,63.7,54.9,29.94,SSW,202,4.0,4.0,73,0.00,,---,0.04,VWS V14.01,2013-05-25 01:25:00,
2013-05-25 11:30:00,64.0,54.8,29.94,South,180,4.3,8.1,72,0.00,,---,0.04,VWS V14.01,2013-05-25 01:30:00,
2013-05-25 11:35:00,63.7,54.1,29.94,South,180,2.0,2.7,71,0.00,,---,0.04,VWS V14.01,2013-05-25 01:35:00,
2013-05-25 11:40:00,63.9,54.7,29.94,South,180,2.7,2.9,72,0.00,,---,0.04,VWS V14.01,2013-05-25 01:40:00,
2013-05-25 11:45:00,64.4,55.2,29.94,SW,225,2.0,7.4,72,0.00,,---,0.04,VWS V14.01,2013-05-25 01:45:00,
2013-05-25 11:50:00,64.6,54.6,29.91,SW,225,3.8,3.8,70,0.00,,---,0.04,VWS V14.01,2013-05-25 01:50:00,
2013-05-25 11:55:00,64.6,55.0,29.91,South,180,2.5,3.6,71,0.00,,---,0.04,VWS V14.01,2013-05-25 01:55:00,
2013-05-25 12:00:00,64.6,55.0,29.91,SSW,202,2.0,2.0,71,0.00,,---,0.04,VWS V14.01,2013-05-25 02:00:00,
2013-05-25 12:05:00,64.4,54.4,29.91,South,180,3.8,3.8,70,0.00,,---,0.04,VWS V14.01,2013-05-25 02:05:00,
2013-05-25 12:10:00,64.4,54.8,29.91,South,180,5.6,5.6,71,0.00,,---,0.04,VWS V14.01,2013-05-25 02:10:00,
2013-05-25 12:15:00,64.2,54.6,29.91,SSE,158,6.5,6.5,71,0.00,,---,0.04,VWS V14.01,2013-05-25 02:15:00,
2013-05-25 12:20:00,64.0,54.1,29.91,SSE,158,2.9,4.3,70,0.00,,---,0.04,VWS V14.01,2013-05-25 02:20:00,
2013-05-25 12:25:00,64.0,54.1,29.91,SE,135,1.1,1.6,70,0.00,,---,0.04,VWS V14.01,2013-05-25 02:25:00,
2013-05-25 12:30:00,64.4,54.4,29.91,SSW,202,3.1,3.1,70,0.00,,---,0.04,VWS V14.01,2013-05-25 02:30:00,
2013-05-25 12:35:00,64.4,54.0,29.91,South,180,4.9,4.9,69,0.00,,---,0.04,VWS V14.01,2013-05-25 02:35:00,
2013-05-25 12:40:00,64.2,53.8,29.91,East,90,3.8,3.8,69,0.00,,---,0.04,VWS V14.01,2013-05-25 02:40:00,
2013-05-25 12:45:00,64.6,54.2,29.91,SSE,158,3.6,7.4,69,0.00,,---,0.04,VWS V14.01,2013-05-25 02:45:00,
2013-05-25 12:50:00,65.1,54.7,29.91,SSW,202,3.4,4.0,69,0.00,,---,0.04,VWS V14.01,2013-05-25 02:50:00,
2013-05-25 12:55:00,65.1,54.3,29.91,SSE,158,2.0,3.4,68,0.00,,---,0.04,VWS V14.01,2013-05-25 02:55:00,
2013-05-25 13:00:00,65.1,54.3,29.91,ESE,112,2.9,2.9,68,0.00,,---,0.04,VWS V14.01,2013-05-25 03:00:00,
2013-05-25 13:05:00,64.9,54.5,29.91,SW,225,2.5,2.5,69,0.00,,---,0.04,VWS V14.01,2013-05-25 03:05:00,
2013-05-25 13:10:00,64.6,54.2,29.91,SSW,202,5.4,5.4,69,0.00,,---,0.04,VWS V14.01,2013-05-25 03:10:00,
2013-05-25 13:15:00,64.2,53.5,29.91,SSE,158,2.7,2.7,68,0.00,,---,0.04,VWS V14.01,2013-05-25 03:15:00,
2013-05-25 13:20:00,64.2,52.6,29.91,SSE,158,3.1,3.1,66,0.00,,---,0.04,VWS V14.01,2013-05-25 03:20:00,
2013-05-25 13:25:00,64.4,53.6,29.91,WSW,248,2.0,2.9,68,0.00,,---,0.04,VWS V14.01,2013-05-25 03:25:00,
2013-05-25 13:30:00,64.2,53.8,29.91,South,180,2.7,5.6,69,0.00,,---,0.04,VWS V14.01,2013-05-25 03:30:00,
2013-05-25 13:35:00,64.4,53.6,29.91,South,180,2.0,3.8,68,0.00,,---,0.04,VWS V14.01,2013-05-25 03:35:00,
2013-05-25 13:40:00,64.4,54.0,29.91,SE,135,2.5,3.6,69,0.00,,---,0.04,VWS V14.01,2013-05-25 03:40:00,
2013-05-25 13:45:00,64.8,54.0,29.91,SSW,202,1.3,3.1,68,0.00,,---,0.04,VWS V14.01,2013-05-25 03:45:00,
2013-05-25 13:50:00,65.1,54.3,29.91,South,180,0.0,0.0,68,0.00,,---,0.04,VWS V14.01,2013-05-25 03:50:00,
2013-05-25 13:55:00,64.9,53.7,29.91,ESE,112,4.0,4.0,67,0.00,,---,0.04,VWS V14.01,2013-05-25 03:55:00,
2013-05-25 14:00:00,64.8,54.0,29.91,South,180,2.5,3.4,68,0.00,,---,0.04,VWS V14.01,2013-05-25 04:00:00,
2013-05-25 14:01:00,64.9,54.1,29.91,SE,135,3.6,3.6,68,0.00,,---,0.04,VWS V14.01,2013-05-25 04:01:00,
2013-05-25 14:06:00,65.1,54.3,29.91,ESE,112,5.6,5.6,68,0.00,,---,0.04,VWS V14.01,2013-05-25 04:06:00,
2013-05-25 14:11:00,65.1,53.1,29.91,ESE,112,2.0,2.9,65,0.00,,---,0.04,VWS V14.01,2013-05-25 04:11:00,
2013-05-25 14:16:00,65.3,54.1,29.91,South,180,3.6,3.6,67,0.00,,---,0.04,VWS V14.01,2013-05-25 04:16:00,
2013-05-25 14:21:00,65.5,53.8,29.91,SW,225,4.0,4.0,66,0.00,,---,0.04,VWS V14.01,2013-05-25 04:21:00,
2013-05-25 14:26:00,65.7,54.4,29.91,SSE,158,4.0,4.0,67,0.00,,---,0.04,VWS V14.01,2013-05-25 04:26:00,
2013-05-25 14:31:00,65.3,52.8,29.91,South,180,3.1,6.0,64,0.00,,---,0.04,VWS V14.01,2013-05-25 04:31:00,
2013-05-25 14:36:00,65.1,52.7,29.91,SE,135,2.0,2.0,64,0.00,,---,0.04,VWS V14.01,2013-05-25 04:36:00,
2013-05-25 14:41:00,65.1,52.7,29.91,SSW,202,1.1,2.7,64,0.00,,---,0.04,VWS V14.01,2013-05-25 04:41:00,
2013-05-25 14:46:00,64.9,53.3,29.91,South,180,2.5,2.5,66,0.00,,---,0.04,VWS V14.01,2013-05-25 04:46:00,
2013-05-25 14:51:00,64.6,53.0,29.91,South,180,2.5,3.1,66,0.00,,---,0.04,VWS V14.01,2013-05-25 04:51:00,
2013-05-25 14:56:00,64.8,53.2,29.91,ESE,112,2.9,2.9,66,0.00,,---,0.04,VWS V14.01,2013-05-25 04:56:00,
2013-05-25 15:01:00,64.6,53.0,29.91,ESE,112,3.8,3.8,66,0.00,,---,0.04,VWS V14.01,2013-05-25 05:01:00,
2013-05-25 15:06:00,64.6,53.0,29.91,SE,135,4.9,4.9,66,0.00,,---,0.04,VWS V14.01,2013-05-25 05:06:00,
2013-05-25 15:11:00,64.6,53.0,29.91,SSW,202,2.0,2.2,66,0.00,,---,0.04,VWS V14.01,2013-05-25 05:11:00,
2013-05-25 15:16:00,64.2,52.6,29.91,SE,135,1.6,2.9,66,0.00,,---,0.04,VWS V14.01,2013-05-25 05:16:00,
2013-05-25 15:21:00,64.0,52.5,29.91,South,180,6.5,6.5,66,0.00,,---,0.04,VWS V14.01,2013-05-25 05:21:00,
2013-05-25 15:26:00,64.0,52.9,29.91,SE,135,4.3,4.3,67,0.00,,---,0.04,VWS V14.01,2013-05-25 05:26:00,
2013-05-25 15:31:00,63.9,52.3,29.91,ESE,112,3.1,3.1,66,0.00,,---,0.04,VWS V14.01,2013-05-25 05:31:00,
2013-05-25 15:36:00,63.9,52.7,29.91,SE,135,2.0,2.0,67,0.00,,---,0.04,VWS V14.01,2013-05-25 05:36:00,
2013-05-25 15:41:00,63.5,52.8,29.91,SE,135,1.3,1.3,68,0.00,,---,0.04,VWS V14.01,2013-05-25 05:41:00,
2013-05-25 15:46:00,63.3,52.6,29.91,SSE,158,2.9,3.4,68,0.00,,---,0.04,VWS V14.01,2013-05-25 05:46:00,
2013-05-25 15:51:00,63.0,52.2,29.91,SE,135,2.7,2.7,68,0.00,,---,0.04,VWS V14.01,2013-05-25 05:51:00,
2013-05-25 15:56:00,63.0,52.6,29.91,SSW,202,1.1,1.1,69,0.00,,---,0.04,VWS V14.01,2013-05-25 05:56:00,
2013-05-25 16:01:00,62.8,52.1,29.91,SE,135,2.7,2.7,68,0.00,,---,0.04,VWS V14.01,2013-05-25 06:01:00,
2013-05-25 16:06:00,62.8,52.1,29.91,SE,135,0.9,0.9,68,0.00,,---,0.04,VWS V14.01,2013-05-25 06:06:00,
2013-05-25 16:11:00,62.6,51.9,29.91,South,180,4.9,4.9,68,0.00,,---,0.04,VWS V14.01,2013-05-25 06:11:00,
2013-05-25 16:16:00,62.2,52.0,29.91,SSW,202,0.9,1.1,69,0.00,,---,0.04,VWS V14.01,2013-05-25 06:16:00,
2013-05-25 16:21:00,62.2,52.0,29.91,SE,135,2.9,2.9,69,0.00,,---,0.04,VWS V14.01,2013-05-25 06:21:00,
2013-05-25 16:26:00,61.9,52.0,29.91,SSE,158,0.0,0.0,70,0.00,,---,0.04,VWS V14.01,2013-05-25 06:26:00,
2013-05-25 16:31:00,61.7,51.8,29.91,SE,135,0.0,1.6,70,0.00,,---,0.04,VWS V14.01,2013-05-25 06:31:00,
2013-05-25 16:36:00,61.5,51.7,29.91,SSE,158,2.0,2.0,70,0.00,,---,0.04,VWS V14.01,2013-05-25 06:36:00,
2013-05-25 16:41:00,61.3,51.9,29.91,SE,135,2.7,2.7,71,0.00,,---,0.04,VWS V14.01,2013-05-25 06:41:00,
2013-05-25 16:46:00,61.2,51.7,29.91,SE,135,2.7,2.9,71,0.00,,---,0.04,VWS V14.01,2013-05-25 06:46:00,
2013-05-25 16:51:00,61.0,51.5,29.91,East,90,0.0,0.0,71,0.00,,---,0.04,VWS V14.01,2013-05-25 06:51:00,
2013-05-25 16:56:00,60.6,51.6,29.91,SE,135,0.0,0.0,72,0.00,,---,0.04,VWS V14.01,2013-05-25 06:56:00,
2013-05-25 17:01:00,60.4,51.4,29.91,SSE,158,0.0,1.1,72,0.00,,---,0.04,VWS V14.01,2013-05-25 07:01:00,
2013-05-25 17:06:00,60.3,51.2,29.94,East,90,0.9,0.9,72,0.00,,---,0.04,VWS V14.01,2013-05-25 07:06:00,
2013-05-25 17:11:00,60.1,51.4,29.94,ESE,112,0.9,0.9,73,0.00,,---,0.04,VWS V14.01,2013-05-25 07:11:00,
2013-05-25 17:16:00,60.1,51.4,29.94,East,90,0.0,0.0,73,0.00,,---,0.04,VWS V14.01,2013-05-25 07:16:00,
2013-05-25 17:21:00,59.9,51.2,29.94,NE,45,0.9,1.1,73,0.00,,---,0.04,VWS V14.01,2013-05-25 07:21:00,
2013-05-25 17:26:00,59.7,51.1,29.94,NE,45,0.0,0.9,73,0.00,,---,0.04,VWS V14.01,2013-05-25 07:26:00,
2013-05-25 17:31:00,59.5,50.9,29.94,NE,45,0.0,0.0,73,0.00,,---,0.04,VWS V14.01,2013-05-25 07:31:00,
2013-05-25 17:36:00,59.4,50.7,29.94,NE,45,0.0,0.0,73,0.00,,---,0.04,VWS V14.01,2013-05-25 07:36:00,
2013-05-25 17:41:00,59.4,50.7,29.94,ENE,68,0.0,0.0,73,0.00,,---,0.04,VWS V14.01,2013-05-25 07:41:00,
2013-05-25 17:46:00,59.2,50.5,29.94,East,90,0.0,0.0,73,0.00,,---,0.04,VWS V14.01,2013-05-25 07:46:00,
2013-05-25 17:51:00,59.2,50.5,29.94,East,90,0.0,0.0,73,0.00,,---,0.04,VWS V14.01,2013-05-25 07:51:00,
2013-05-25 17:56:00,59.0,50.4,29.94,East,90,0.0,0.0,73,0.00,,---,0.04,VWS V14.01,2013-05-25 07:56:00,
2013-05-25 18:00:00,59.0,50.4,29.94,NE,45,0.0,0.0,73,0.00,,---,0.04,VWS V14.01,2013-05-25 08:00:00,
2013-05-25 18:05:00,59.0,50.4,29.94,WNW,292,2.2,2.2,73,0.00,,---,0.04,VWS V14.01,2013-05-25 08:05:00,
2013-05-25 18:10:00,58.8,50.6,29.94,NNW,338,2.0,2.0,74,0.00,,---,0.04,VWS V14.01,2013-05-25 08:10:00,
2013-05-25 18:15:00,58.8,50.6,29.94,North,0,2.0,2.0,74,0.00,,---,0.04,VWS V14.01,2013-05-25 08:15:00,
2013-05-25 18:20:00,58.8,50.6,29.94,North,0,2.2,2.2,74,0.00,,---,0.04,VWS V14.01,2013-05-25 08:20:00,
2013-05-25 18:25:00,58.6,50.8,29.94,NW,315,1.6,1.6,75,0.00,,---,0.04,VWS V14.01,2013-05-25 08:25:00,
2013-05-25 18:30:00,58.6,50.8,29.94,NNW,338,1.3,2.0,75,0.00,,---,0.04,VWS V14.01,2013-05-25 08:30:00,
2013-05-25 18:35:00,58.6,50.8,29.94,NNW,338,0.0,0.0,75,0.00,,---,0.04,VWS V14.01,2013-05-25 08:35:00,
2013-05-25 18:40:00,58.5,50.9,29.94,NNW,338,0.0,0.0,76,0.00,,---,0.04,VWS V14.01,2013-05-25 08:40:00,
2013-05-25 18:45:00,58.5,50.9,29.94,NNW,338,2.0,2.0,76,0.00,,---,0.04,VWS V14.01,2013-05-25 08:45:00,
2013-05-25 18:50:00,58.5,50.9,29.94,NNW,338,2.0,2.0,76,0.00,,---,0.04,VWS V14.01,2013-05-25 08:50:00,
2013-05-25 18:55:00,58.3,50.8,29.94,North,0,1.1,1.3,76,0.00,,---,0.04,VWS V14.01,2013-05-25 08:55:00,
2013-05-25 19:00:00,58.3,50.8,29.94,NNW,338,0.0,0.0,76,0.00,,---,0.04,VWS V14.01,2013-05-25 09:00:00,
2013-05-25 19:05:00,58.1,50.6,29.94,North,0,0.0,0.0,76,0.00,,---,0.04,VWS V14.01,2013-05-25 09:05:00,
2013-05-25 19:10:00,58.1,50.9,29.94,NNW,338,0.0,0.0,77,0.00,,---,0.04,VWS V14.01,2013-05-25 09:10:00,
2013-05-25 19:15:00,58.1,50.9,29.94,North,0,0.0,0.0,77,0.00,,---,0.04,VWS V14.01,2013-05-25 09:15:00,
2013-05-25 19:20:00,58.1,50.9,29.97,NE,45,0.0,0.0,77,0.00,,---,0.04,VWS V14.01,2013-05-25 09:20:00,
2013-05-25 19:25:00,57.9,50.8,29.97,NE,45,0.0,0.0,77,0.00,,---,0.04,VWS V14.01,2013-05-25 09:25:00,
2013-05-25 19:30:00,57.9,50.8,29.97,NE,45,0.0,0.0,77,0.00,,---,0.04,VWS V14.01,2013-05-25 09:30:00,
2013-05-25 19:35:00,57.7,50.6,29.97,NE,45,0.0,0.0,77,0.00,,---,0.04,VWS V14.01,2013-05-25 09:35:00,
2013-05-25 19:40:00,57.7,50.6,29.97,NNE,22,0.0,0.0,77,0.00,,---,0.04,VWS V14.01,2013-05-25 09:40:00,
2013-05-25 19:45:00,57.7,50.6,29.97,NNE,22,0.0,0.0,77,0.00,,---,0.04,VWS V14.01,2013-05-25 09:45:00,
2013-05-25 19:50:00,57.6,50.4,29.97,NE,45,0.0,0.0,77,0.00,,---,0.04,VWS V14.01,2013-05-25 09:50:00,
2013-05-25 19:55:00,57.6,50.4,29.97,NE,45,0.0,0.0,77,0.00,,---,0.04,VWS V14.01,2013-05-25 09:55:00,
2013-05-25 20:00:00,57.6,50.4,29.97,NE,45,0.0,0.0,77,0.00,,---,0.04,VWS V14.01,2013-05-25 10:00:00,
2013-05-25 20:05:00,57.6,50.4,29.97,NE,45,0.0,0.0,77,0.00,,---,0.04,VWS V14.01,2013-05-25 10:05:00,
2013-05-25 20:10:00,57.4,50.2,29.97,NE,45,0.0,0.0,77,0.00,,---,0.04,VWS V14.01,2013-05-25 10:10:00,
2013-05-25 20:15:00,57.4,50.2,29.97,North,0,2.0,2.0,77,0.00,,---,0.04,VWS V14.01,2013-05-25 10:15:00,
2013-05-25 20:20:00,57.2,50.4,29.97,NNE,22,0.0,0.0,78,0.00,,---,0.04,VWS V14.01,2013-05-25 10:20:00,
2013-05-25 20:25:00,57.2,50.4,29.97,NNE,22,0.0,0.0,78,0.00,,---,0.04,VWS V14.01,2013-05-25 10:25:00,
2013-05-25 20:30:00,57.2,50.4,29.97,NNE,22,0.0,0.0,78,0.00,,---,0.04,VWS V14.01,2013-05-25 10:30:00,
2013-05-25 20:35:00,57.0,50.6,29.97,NNE,22,0.0,0.0,79,0.00,,---,0.04,VWS V14.01,2013-05-25 10:35:00,
2013-05-25 20:40:00,57.0,50.6,29.97,NNE,22,0.9,0.9,79,0.00,,---,0.04,VWS V14.01,2013-05-25 10:40:00,
2013-05-25 20:45:00,57.0,50.6,29.97,NNE,22,1.3,1.3,79,0.00,,---,0.04,VWS V14.01,2013-05-25 10:45:00,
2013-05-25 20:50:00,56.8,50.4,29.97,NNE,22,0.0,0.0,79,0.00,,---,0.04,VWS V14.01,2013-05-25 10:50:00,
2013-05-25 20:55:00,56.8,50.4,29.97,NNE,22,0.0,0.0,79,0.00,,---,0.04,VWS V14.01,2013-05-25 10:55:00,
2013-05-25 21:00:00,56.7,50.6,29.97,North,0,0.0,0.0,80,0.00,,---,0.04,VWS V14.01,2013-05-25 11:00:00,
2013-05-25 21:05:00,56.7,50.6,29.97,North,0,0.9,1.3,80,0.00,,---,0.04,VWS V14.01,2013-05-25 11:05:00,
2013-05-25 21:10:00,56.5,50.4,29.97,North,0,1.6,1.6,80,0.00,,---,0.04,VWS V14.01,2013-05-25 11:10:00,
2013-05-25 21:15:00,56.5,50.4,29.97,North,0,2.5,2.5,80,0.00,,---,0.04,VWS V14.01,2013-05-25 11:15:00,
2013-05-25 21:20:00,56.3,50.2,29.97,North,0,1.3,1.3,80,0.00,,---,0.04,VWS V14.01,2013-05-25 11:20:00,
2013-05-25 21:25:00,56.3,50.5,29.97,North,0,2.0,2.0,81,0.00,,---,0.04,VWS V14.01,2013-05-25 11:25:00,
2013-05-25 21:30:00,56.1,50.4,29.97,North,0,1.1,1.1,81,0.00,,---,0.04,VWS V14.01,2013-05-25 11:30:00,
2013-05-25 21:35:00,55.9,50.2,29.97,NNE,22,0.0,0.0,81,0.00,,---,0.04,VWS V14.01,2013-05-25 11:35:00,
2013-05-25 21:40:00,55.9,50.2,29.97,NNE,22,0.0,0.0,81,0.00,,---,0.04,VWS V14.01,2013-05-25 11:40:00,
2013-05-25 21:45:00,55.8,50.0,29.97,NNE,22,0.0,0.0,81,0.00,,---,0.04,VWS V14.01,2013-05-25 11:45:00,
2013-05-25 21:50:00,55.8,50.0,29.97,North,0,2.0,2.0,81,0.00,,---,0.04,VWS V14.01,2013-05-25 11:50:00,
2013-05-25 21:55:00,55.8,50.0,29.97,North,0,2.0,2.0,81,0.00,,---,0.04,VWS V14.01,2013-05-25 11:55:00,
2013-05-25 22:00:00,55.8,50.0,29.97,North,0,2.2,2.5,81,0.00,,---,0.04,VWS V14.01,2013-05-25 12:00:00,
2013-05-25 22:05:00,55.8,50.0,29.97,North,0,2.0,2.0,81,0.00,,---,0.04,VWS V14.01,2013-05-25 12:05:00,
2013-05-25 22:10:00,55.8,50.0,29.97,North,0,2.0,2.2,81,0.00,,---,0.04,VWS V14.01,2013-05-25 12:10:00,
2013-05-25 22:15:00,55.9,50.2,29.97,North,0,2.5,2.5,81,0.00,,---,0.04,VWS V14.01,2013-05-25 12:15:00,
2013-05-25 22:20:00,55.9,50.2,29.97,North,0,1.6,2.0,81,0.00,,---,0.04,VWS V14.01,2013-05-25 12:20:00,
2013-05-25 22:25:00,55.9,50.2,29.97,North,0,1.6,1.6,81,0.00,,---,0.04,VWS V14.01,2013-05-25 12:25:00,
2013-05-25 22:30:00,55.8,50.0,29.97,North,0,1.6,1.6,81,0.00,,---,0.04,VWS V14.01,2013-05-25 12:30:00,
2013-05-25 22:35:00,55.8,50.0,29.97,North,0,2.7,2.7,81,0.00,,---,0.04,VWS V14.01,2013-05-25 12:35:00,
2013-05-25 22:40:00,55.9,50.2,29.97,North,0,0.0,1.3,81,0.00,,---,0.04,VWS V14.01,2013-05-25 12:40:00,
2013-05-25 22:45:00,55.8,50.0,29.97,North,0,0.0,0.0,81,0.00,,---,0.04,VWS V14.01,2013-05-25 12:45:00,
2013-05-25 22:50:00,55.8,50.0,30.00,North,0,0.0,0.0,81,0.00,,---,0.04,VWS V14.01,2013-05-25 12:50:00,
2013-05-25 22:55:00,55.8,50.0,30.00,North,0,1.1,1.1,81,0.00,,---,0.04,VWS V14.01,2013-05-25 12:55:00,
2013-05-25 23:00:00,55.8,50.0,30.00,North,0,1.6,1.6,81,0.00,,---,0.04,VWS V14.01,2013-05-25 13:00:00,
2013-05-25 23:05:00,55.8,50.0,29.97,North,0,0.0,0.0,81,0.00,,---,0.04,VWS V14.01,2013-05-25 13:05:00,
2013-05-25 23:10:00,55.8,50.0,29.97,North,0,0.0,0.0,81,0.00,,---,0.04,VWS V14.01,2013-05-25 13:10:00,
2013-05-25 23:15:00,55.6,49.8,29.97,North,0,0.0,0.0,81,0.00,,---,0.04,VWS V14.01,2013-05-25 13:15:00,
2013-05-25 23:20:00,55.6,49.8,30.00,North,0,0.0,0.0,81,0.00,,---,0.04,VWS V14.01,2013-05-25 13:20:00,
2013-05-25 23:25:00,55.6,49.8,30.00,North,0,0.0,0.0,81,0.00,,---,0.04,VWS V14.01,2013-05-25 13:25:00,
2013-05-25 23:30:00,55.4,49.7,30.00,North,0,2.0,2.0,81,0.00,,---,0.04,VWS V14.01,2013-05-25 13:30:00,
2013-05-25 23:35:00,55.4,49.7,29.97,North,0,0.0,0.0,81,0.00,,---,0.04,VWS V14.01,2013-05-25 13:35:00,
2013-05-25 23:40:00,55.4,50.0,29.97,North,0,1.1,1.1,82,0.00,,---,0.04,VWS V14.01,2013-05-25 13:40:00,
2013-05-25 23:45:00,55.4,50.0,29.97,North,0,1.1,1.6,82,0.00,,---,0.04,VWS V14.01,2013-05-25 13:45:00,
2013-05-25 23:50:00,55.2,49.8,29.97,North,0,0.9,1.6,82,0.00,,---,0.04,VWS V14.01,2013-05-25 13:50:00,
2013-05-25 23:55:00,55.2,49.8,29.97,North,0,0.0,0.0,82,0.00,,---,0.04,VWS V14.01,2013-05-25 13:55:00,